Time;durP1;ratioP1;P1;durP2;ratioP2;P2;SDS_P1;SDS_P2;PMS_P1;PMS_P2;Temp;Humidity;BMP_temperature;BMP_pressure;BME280_temperature;BME280_humidity;BME280_pressure;Samples;Min_cycle;Max_cycle;Signal;HPM_P1;HPM_P2
2021/05/16 00:01:48;;;;;;;4.30;0.90;;;;;;;9.16;94.90;95368.38;5073949;28;20716;-62
2021/05/16 00:04:13;;;;;;;1.80;1.20;;;;;;;9.29;94.19;95370.63;5072517;28;20177;-62
2021/05/16 00:06:39;;;;;;;1.80;1.47;;;;;;;9.20;94.73;95377.31;5068947;28;20263;-62
2021/05/16 00:09:04;;;;;;;0.90;0.90;;;;;;;9.15;94.80;95373.84;5065022;28;20226;-63
2021/05/16 00:11:30;;;;;;;1.30;0.97;;;;;;;9.19;94.73;95393.28;5071821;28;20579;-61
2021/05/16 00:13:56;;;;;;;2.80;0.70;;;;;;;9.29;94.70;95386.34;5073756;28;20218;-61
2021/05/16 00:16:22;;;;;;;1.73;1.10;;;;;;;9.35;94.10;95384.59;5073659;28;20189;-62
2021/05/16 00:18:47;;;;;;;1.20;1.10;;;;;;;9.26;94.57;95396.53;5069664;28;20454;-62
2021/05/16 00:21:12;;;;;;;4.00;1.20;;;;;;;9.30;94.58;95389.78;5073474;28;20182;-63
2021/05/16 00:23:38;;;;;;;1.00;0.93;;;;;;;9.43;94.49;95386.81;5073563;28;20622;-61
2021/05/16 00:26:04;;;;;;;3.13;1.13;;;;;;;9.43;94.09;95391.25;5072737;28;20620;-62
2021/05/16 00:28:32;;;;;;;4.60;1.13;;;;;;;9.38;93.85;95393.81;5073051;28;20167;-62
2021/05/16 00:30:58;;;;;;;1.50;1.07;;;;;;;9.23;94.97;95389.97;5073439;28;20186;-62
2021/05/16 00:33:24;;;;;;;2.23;1.23;;;;;;;9.21;95.51;95394.66;5068183;28;20901;-62
2021/05/16 00:35:49;;;;;;;2.83;1.10;;;;;;;9.18;95.53;95391.72;5065899;28;20467;-62
2021/05/16 00:38:15;;;;;;;2.10;1.20;;;;;;;9.20;95.74;95390.44;5073105;28;20202;-62
2021/05/16 00:40:40;;;;;;;2.90;1.13;;;;;;;9.30;95.83;95389.78;5072562;28;20218;-61
2021/05/16 00:43:06;;;;;;;2.57;1.00;;;;;;;9.17;96.61;95390.13;5073415;28;20653;-62
2021/05/16 00:45:32;;;;;;;2.17;1.27;;;;;;;9.28;96.18;95395.28;5073380;28;20170;-61
2021/05/16 00:48:00;;;;;;;1.40;1.17;;;;;;;9.42;95.84;95385.22;5069960;28;20168;-61
2021/05/16 00:50:34;;;;;;;1.23;0.93;;;;;;;9.41;95.37;95386.25;5073369;28;20530;-62
2021/05/16 00:52:59;;;;;;;2.20;1.17;;;;;;;9.55;94.48;95384.09;5073225;28;20431;-62
2021/05/16 00:55:25;;;;;;;1.30;1.20;;;;;;;9.63;93.93;95381.03;5072164;28;20558;-61
2021/05/16 00:57:51;;;;;;;1.93;1.10;;;;;;;9.54;94.48;95379.88;5072745;28;20592;-63
2021/05/16 01:00:22;;;;;;;1.10;1.00;;;;;;;9.44;94.77;95371.91;5072791;28;20264;-62
2021/05/16 01:02:47;;;;;;;3.80;1.40;;;;;;;9.69;93.85;95356.47;5069810;28;20183;-62
2021/05/16 01:05:17;;;;;;;3.53;1.60;;;;;;;9.63;93.93;95350.38;5053073;28;20414;-62
2021/05/16 01:07:44;;;;;;;1.77;1.10;;;;;;;9.50;93.77;95366.47;5052751;28;20638;-61
2021/05/16 01:10:11;;;;;;;3.27;1.70;;;;;;;9.52;94.54;95359.16;5054754;28;20445;-61
2021/05/16 01:12:49;;;;;;;1.47;1.20;;;;;;;9.60;93.88;95363.19;5065809;28;20484;-61
2021/05/16 01:15:17;;;;;;;3.73;1.63;;;;;;;9.50;94.93;95371.69;5052917;28;20411;-61
2021/05/16 01:17:44;;;;;;;1.33;1.23;;;;;;;9.74;94.03;95364.38;5053493;28;20442;-62
2021/05/16 01:20:13;;;;;;;2.33;1.50;;;;;;;9.95;93.13;95363.56;5053059;28;20432;-62
2021/05/16 01:22:39;;;;;;;1.83;1.07;;;;;;;9.90;92.50;95366.94;5052892;28;20411;-63
2021/05/16 01:25:06;;;;;;;2.70;1.27;;;;;;;9.81;92.42;95368.41;5051687;28;20441;-62
2021/05/16 01:27:32;;;;;;;2.77;1.20;;;;;;;9.73;92.97;95362.81;5052631;28;20880;-62
2021/05/16 01:29:57;;;;;;;3.50;1.20;;;;;;;9.71;93.85;95357.78;5052830;28;20427;-62
2021/05/16 01:32:25;;;;;;;1.63;1.13;;;;;;;9.54;94.53;95370.19;5067836;28;20264;-62
2021/05/16 01:34:50;;;;;;;1.80;0.80;;;;;;;9.79;93.74;95370.50;5073022;28;20219;-62
2021/05/16 01:37:17;;;;;;;3.30;1.37;;;;;;;9.80;94.31;95364.19;5072444;28;20462;-62
2021/05/16 01:39:48;;;;;;;7.97;1.73;;;;;;;9.49;97.26;95358.84;5066544;28;20203;-63
2021/05/16 01:42:14;;;;;;;1.70;1.20;;;;;;;9.35;99.64;95356.56;5064242;28;20424;-61
2021/05/16 01:44:40;;;;;;;2.60;1.40;;;;;;;9.35;100.00;95358.38;5057372;28;20428;-62
2021/05/16 01:47:06;;;;;;;1.27;1.10;;;;;;;9.28;100.00;95363.81;5056004;28;20413;-61
2021/05/16 01:49:47;;;;;;;1.43;1.30;;;;;;;9.30;100.00;95363.56;5056165;28;20634;-61
2021/05/16 01:52:12;;;;;;;2.70;1.20;;;;;;;9.15;100.00;95363.34;5056382;28;20177;-62
2021/05/16 01:54:38;;;;;;;2.93;1.77;;;;;;;9.19;100.00;95356.59;5063819;28;20429;-62
2021/05/16 01:57:05;;;;;;;4.13;1.80;;;;;;;9.08;100.00;95353.06;5074967;28;20717;-62
2021/05/16 01:59:31;;;;;;;1.97;1.37;;;;;;;9.37;100.00;95358.94;5074019;28;20794;-63
2021/05/16 02:01:59;;;;;;;2.73;1.70;;;;;;;9.51;100.00;95354.94;5076242;28;20409;-61
2021/05/16 02:04:28;;;;;;;2.63;1.33;;;;;;;9.34;100.00;95352.38;5076029;28;20498;-61
2021/05/16 02:06:58;;;;;;;4.00;1.83;;;;;;;9.37;100.00;95353.69;5075790;28;20914;-61
2021/05/16 02:09:28;;;;;;;3.30;1.80;;;;;;;9.55;100.00;95352.63;5075847;28;20426;-62
2021/05/16 02:11:54;;;;;;;2.83;2.03;;;;;;;9.37;100.00;95353.69;5074004;28;20425;-62
2021/05/16 02:14:27;;;;;;;1.80;1.43;;;;;;;9.13;100.00;95352.34;5067896;28;20500;-62
2021/05/16 02:16:54;;;;;;;3.40;2.07;;;;;;;9.22;100.00;95349.06;5069859;28;20452;-62
2021/05/16 02:19:19;;;;;;;3.03;1.67;;;;;;;9.14;100.00;95353.91;5055570;28;20434;-61
2021/05/16 02:21:45;;;;;;;4.93;1.60;;;;;;;9.22;100.00;95346.44;5055736;28;20410;-61
2021/05/16 02:24:11;;;;;;;4.20;1.93;;;;;;;9.00;100.00;95347.44;5055824;28;20746;-62
2021/05/16 02:26:37;;;;;;;3.70;1.60;;;;;;;9.27;100.00;95348.34;5067480;28;20177;-62
2021/05/16 02:29:04;;;;;;;4.17;1.97;;;;;;;9.48;100.00;95350.19;5075304;28;20431;-62
2021/05/16 02:31:31;;;;;;;1.70;1.60;;;;;;;9.15;100.00;95347.63;5073017;28;20183;-61
2021/05/16 02:33:57;;;;;;;4.63;1.70;;;;;;;9.01;100.00;95351.63;5055539;28;20876;-61
2021/05/16 02:36:23;;;;;;;4.37;1.73;;;;;;;9.10;100.00;95347.56;5055494;28;20552;-62
2021/05/16 02:38:48;;;;;;;4.33;2.10;;;;;;;8.99;100.00;95364.19;5054727;28;20411;-60
2021/05/16 02:41:14;;;;;;;7.80;2.20;;;;;;;9.20;100.00;95366.84;5055245;28;20503;-61
2021/05/16 02:43:39;;;;;;;3.73;2.87;;;;;;;9.37;100.00;95369.44;5055373;28;20284;-62
2021/05/16 02:46:04;;;;;;;2.10;1.90;;;;;;;9.44;100.00;95361.41;5055408;28;20532;-62
2021/05/16 02:48:30;;;;;;;3.97;2.03;;;;;;;9.19;100.00;95360.03;5053675;28;20185;-61
2021/05/16 02:50:55;;;;;;;3.03;1.97;;;;;;;9.39;100.00;95362.13;5055001;28;20186;-62
2021/05/16 02:53:22;;;;;;;4.87;1.97;;;;;;;9.60;100.00;95353.47;5054200;28;20174;-62
2021/05/16 02:55:48;;;;;;;2.00;1.90;;;;;;;9.70;100.00;95356.22;5074979;28;20659;-61
2021/05/16 02:58:14;;;;;;;5.53;2.20;;;;;;;9.50;100.00;95363.03;5073941;28;20414;-61
2021/05/16 03:00:40;;;;;;;4.43;2.30;;;;;;;9.64;100.00;95357.19;5074934;28;20192;-62
2021/05/16 03:03:06;;;;;;;2.57;1.83;;;;;;;9.70;100.00;95345.72;5075021;28;20502;-62
2021/05/16 03:05:32;;;;;;;4.10;2.17;;;;;;;9.63;100.00;95341.69;5074750;28;20175;-61
2021/05/16 03:07:58;;;;;;;3.40;1.90;;;;;;;9.71;100.00;95339.44;5072725;28;21031;-62
2021/05/16 03:10:23;;;;;;;2.20;1.70;;;;;;;9.80;100.00;95345.84;5074842;28;20192;-62
2021/05/16 03:12:49;;;;;;;4.30;1.60;;;;;;;9.64;100.00;95340.69;5073209;28;20658;-61
2021/05/16 03:15:14;;;;;;;1.47;1.37;;;;;;;9.86;100.00;95338.81;5074287;28;20248;-61
2021/05/16 03:17:40;;;;;;;1.87;1.77;;;;;;;9.87;100.00;95341.22;5074091;28;20246;-61
2021/05/16 03:20:07;;;;;;;2.23;1.90;;;;;;;9.96;100.00;95339.75;5074581;28;20615;-62
2021/05/16 03:22:33;;;;;;;2.27;2.03;;;;;;;10.08;100.00;95331.69;5065138;28;20177;-61
2021/05/16 03:24:58;;;;;;;1.97;1.87;;;;;;;10.06;100.00;95339.03;5054409;28;20511;-62
2021/05/16 03:27:24;;;;;;;4.47;1.97;;;;;;;9.96;100.00;95334.50;5054034;28;20184;-61
2021/05/16 03:29:49;;;;;;;2.80;1.80;;;;;;;10.08;100.00;95332.50;5054345;28;20201;-61
2021/05/16 03:32:14;;;;;;;3.00;1.80;;;;;;;10.20;100.00;95333.16;5054482;28;20169;-62
2021/05/16 03:34:40;;;;;;;7.93;2.00;;;;;;;10.00;100.00;95335.56;5055268;28;20532;-62
2021/05/16 03:37:05;;;;;;;2.03;1.40;;;;;;;10.16;99.84;95339.94;5054796;28;20672;-61
2021/05/16 03:39:31;;;;;;;1.97;1.57;;;;;;;10.17;100.00;95340.75;5054145;28;20222;-63
2021/05/16 03:41:56;;;;;;;1.53;1.43;;;;;;;10.02;100.00;95333.47;5054282;28;20238;-62
2021/05/16 03:44:26;;;;;;;2.40;1.40;;;;;;;10.27;99.22;95346.09;5054423;28;20186;-63
2021/05/16 03:46:52;;;;;;;3.93;1.70;;;;;;;10.01;100.00;95342.41;5054000;28;20184;-61
2021/05/16 03:49:18;;;;;;;2.63;1.70;;;;;;;10.08;99.21;95350.88;5053746;28;21566;-62
2021/05/16 03:51:44;;;;;;;2.50;1.63;;;;;;;9.85;100.00;95340.66;5071106;28;20425;-62
2021/05/16 03:54:10;;;;;;;2.50;1.43;;;;;;;9.96;100.00;95346.81;5073952;28;20177;-61
2021/05/16 03:56:35;;;;;;;4.80;1.60;;;;;;;10.11;100.00;95347.78;5073768;28;20491;-61
2021/05/16 03:59:01;;;;;;;1.77;1.33;;;;;;;10.03;100.00;95344.78;5066220;28;20843;-61
2021/05/16 04:01:27;;;;;;;1.80;1.70;;;;;;;10.02;100.00;95346.59;5060292;28;20264;-61
2021/05/16 04:03:52;;;;;;;3.17;1.47;;;;;;;10.10;100.00;95350.66;5069030;28;20465;-61
2021/05/16 04:06:18;;;;;;;2.37;1.67;;;;;;;10.00;100.00;95351.31;5053451;28;20173;-62
2021/05/16 04:08:43;;;;;;;2.10;1.53;;;;;;;10.31;100.00;95350.59;5053287;28;20178;-62
2021/05/16 04:11:09;;;;;;;6.23;1.47;;;;;;;10.59;98.97;95349.53;5053967;28;20527;-61
2021/05/16 04:13:34;;;;;;;2.57;1.20;;;;;;;10.26;98.58;95349.75;5053750;28;20181;-61
2021/05/16 04:16:01;;;;;;;1.60;1.00;;;;;;;10.13;100.00;95342.28;5052281;28;20202;-61
2021/05/16 04:18:26;;;;;;;1.83;1.33;;;;;;;10.14;100.00;95339.44;5058814;28;20183;-62
2021/05/16 04:20:52;;;;;;;1.63;1.53;;;;;;;10.12;100.00;95338.88;5073483;28;20427;-62
2021/05/16 04:23:18;;;;;;;4.70;1.80;;;;;;;9.90;100.00;95342.53;5073671;28;20263;-61
2021/05/16 04:25:44;;;;;;;1.53;1.30;;;;;;;9.93;100.00;95344.66;5073685;28;20174;-61
2021/05/16 04:28:09;;;;;;;2.83;1.40;;;;;;;9.87;100.00;95333.34;5072296;28;20180;-61
2021/05/16 04:30:35;;;;;;;1.57;1.47;;;;;;;9.91;100.00;95333.66;5071921;28;20198;-62
2021/05/16 04:33:00;;;;;;;1.87;1.27;;;;;;;9.88;100.00;95342.78;5071712;28;20178;-62
2021/05/16 04:35:25;;;;;;;4.00;1.53;;;;;;;9.72;100.00;95341.03;5073572;28;20490;-61
2021/05/16 04:37:51;;;;;;;3.77;1.47;;;;;;;9.56;100.00;95347.16;5072191;28;20261;-61
2021/05/16 04:40:16;;;;;;;2.20;1.30;;;;;;;9.62;100.00;95342.75;5073365;28;20214;-62
2021/05/16 04:42:42;;;;;;;3.10;1.60;;;;;;;9.27;100.00;95351.75;5073469;28;20636;-61
2021/05/16 04:45:08;;;;;;;2.77;1.60;;;;;;;9.67;100.00;95351.47;5071472;28;20180;-62
2021/05/16 04:47:34;;;;;;;3.47;1.47;;;;;;;9.38;100.00;95362.38;5072912;28;20169;-61
2021/05/16 04:50:00;;;;;;;5.50;1.50;;;;;;;9.25;100.00;95363.50;5073013;28;20442;-61
2021/05/16 04:52:25;;;;;;;1.50;1.40;;;;;;;9.43;100.00;95350.13;5072465;28;20174;-61
2021/05/16 04:54:51;;;;;;;1.53;1.23;;;;;;;9.59;100.00;95338.78;5064214;28;20972;-62
2021/05/16 04:57:16;;;;;;;1.37;1.23;;;;;;;9.68;100.00;95349.63;5052760;28;20589;-62
2021/05/16 04:59:42;;;;;;;3.50;1.50;;;;;;;9.86;100.00;95344.06;5055683;28;20245;-62
2021/05/16 05:02:07;;;;;;;0.80;0.80;;;;;;;9.67;100.00;95361.97;5073527;28;20680;-62
2021/05/16 05:04:36;;;;;;;5.60;1.30;;;;;;;9.80;100.00;95352.94;5073130;28;20165;-61
2021/05/16 05:07:04;;;;;;;1.70;1.17;;;;;;;9.83;100.00;95355.84;5064178;28;20174;-62
2021/05/16 05:09:30;;;;;;;2.57;1.17;;;;;;;9.78;100.00;95361.06;5055589;28;20435;-62
2021/05/16 05:11:55;;;;;;;1.80;1.40;;;;;;;9.89;100.00;95352.22;5073159;28;20410;-62
2021/05/16 05:14:21;;;;;;;5.30;0.97;;;;;;;10.06;100.00;95363.44;5073125;28;20174;-61
2021/05/16 05:16:46;;;;;;;1.60;1.03;;;;;;;9.89;100.00;95364.56;5073746;28;20195;-62
2021/05/16 05:19:11;;;;;;;2.30;0.93;;;;;;;9.86;100.00;95360.59;5074703;28;20211;-61
2021/05/16 05:21:37;;;;;;;1.20;1.00;;;;;;;9.82;100.00;95367.38;5076874;28;20181;-60
2021/05/16 05:24:02;;;;;;;2.23;1.40;;;;;;;9.85;100.00;95369.53;5075979;28;20180;-61
2021/05/16 05:26:27;;;;;;;1.63;0.87;;;;;;;10.02;100.00;95364.16;5076797;28;20172;-61
2021/05/16 05:28:53;;;;;;;2.43;1.00;;;;;;;9.93;100.00;95361.19;5076204;28;20273;-61
2021/05/16 05:31:18;;;;;;;1.10;0.90;;;;;;;10.38;100.00;95360.13;5060725;28;20241;-61
2021/05/16 05:33:44;;;;;;;1.43;0.93;;;;;;;10.08;100.00;95366.63;5056612;28;20182;-61
2021/05/16 05:36:10;;;;;;;3.00;1.17;;;;;;;10.08;100.00;95369.25;5056582;28;20197;-61
2021/05/16 05:38:35;;;;;;;1.73;1.17;;;;;;;10.13;100.00;95371.94;5055889;28;20257;-61
2021/05/16 05:41:00;;;;;;;0.97;0.97;;;;;;;10.47;100.00;95362.06;5059206;28;20470;-61
2021/05/16 05:43:26;;;;;;;2.03;1.27;;;;;;;10.58;100.00;95365.56;5076541;28;20176;-61
2021/05/16 05:45:51;;;;;;;2.60;1.03;;;;;;;10.49;100.00;95369.69;5076588;28;20224;-61
2021/05/16 05:48:16;;;;;;;3.17;1.00;;;;;;;10.45;100.00;95360.72;5076007;28;20216;-61
2021/05/16 05:50:42;;;;;;;1.33;1.10;;;;;;;10.56;100.00;95359.75;5076074;28;20280;-61
2021/05/16 05:53:07;;;;;;;2.50;1.20;;;;;;;10.50;100.00;95360.75;5076567;28;20213;-61
2021/05/16 05:55:33;;;;;;;3.73;1.43;;;;;;;10.19;100.00;95357.03;5063365;28;20514;-62
2021/05/16 05:57:59;;;;;;;2.10;0.80;;;;;;;10.12;100.00;95365.13;5056859;28;20177;-62
2021/05/16 06:00:28;;;;;;;1.07;0.97;;;;;;;9.82;100.00;95369.22;5055957;28;20462;-62
2021/05/16 06:02:57;;;;;;;4.93;1.00;;;;;;;9.72;100.00;95363.84;5056057;28;20511;-61
2021/05/16 06:05:25;;;;;;;1.80;1.20;;;;;;;10.07;100.00;95364.25;5056348;28;20400;-62
2021/05/16 06:07:52;;;;;;;2.37;1.33;;;;;;;10.15;100.00;95359.38;5055696;28;20917;-62
2021/05/16 06:10:18;;;;;;;1.77;1.00;;;;;;;10.18;100.00;95363.34;5058448;28;20435;-62
2021/05/16 06:12:43;;;;;;;0.80;0.80;;;;;;;10.15;100.00;95369.06;5069782;28;20914;-62
2021/05/16 06:15:09;;;;;;;3.13;1.00;;;;;;;10.16;100.00;95366.19;5055762;28;20174;-62
2021/05/16 06:17:35;;;;;;;2.50;0.90;;;;;;;10.64;100.00;95372.41;5055258;28;20198;-63
2021/05/16 06:20:01;;;;;;;1.20;0.90;;;;;;;10.80;100.00;95358.34;5055780;28;20942;-61
2021/05/16 06:22:26;;;;;;;1.43;0.73;;;;;;;10.79;100.00;95364.66;5055827;28;20175;-62
2021/05/16 06:24:51;;;;;;;2.63;0.73;;;;;;;10.91;99.81;95362.66;5062073;28;20535;-61
2021/05/16 06:27:17;;;;;;;0.97;0.90;;;;;;;10.74;100.00;95364.63;5057486;28;20517;-61
2021/05/16 06:29:42;;;;;;;0.87;0.87;;;;;;;10.82;99.55;95354.44;5055278;28;20249;-62
2021/05/16 06:32:09;;;;;;;3.50;0.83;;;;;;;10.88;98.49;95363.16;5055464;28;20178;-62
2021/05/16 06:34:35;;;;;;;5.30;0.93;;;;;;;11.11;97.63;95368.03;5054251;28;20636;-62
2021/05/16 06:37:04;;;;;;;1.90;1.27;;;;;;;11.16;97.33;95366.25;5055153;28;20479;-62
2021/05/16 06:39:30;;;;;;;6.37;0.90;;;;;;;11.16;96.77;95360.97;5055464;28;20191;-63
2021/05/16 06:41:56;;;;;;;0.97;0.90;;;;;;;11.28;95.65;95363.44;5055404;28;20495;-61
2021/05/16 06:44:25;;;;;;;2.60;1.03;;;;;;;11.36;95.31;95366.38;5056267;28;20262;-61
2021/05/16 06:46:50;;;;;;;2.87;0.80;;;;;;;11.33;93.05;95363.44;5055127;28;20176;-62
2021/05/16 06:49:16;;;;;;;0.90;0.90;;;;;;;11.28;93.76;95358.16;5054878;28;20517;-62
2021/05/16 06:51:41;;;;;;;1.83;1.00;;;;;;;11.49;92.28;95359.06;5055132;28;20199;-63
2021/05/16 06:54:07;;;;;;;2.63;0.97;;;;;;;11.48;90.20;95360.91;5055941;28;20609;-63
2021/05/16 06:56:34;;;;;;;2.43;0.90;;;;;;;11.78;90.74;95363.69;5073996;28;20222;-64
2021/05/16 06:58:59;;;;;;;2.20;1.00;;;;;;;11.94;90.39;95367.19;5074107;28;20206;-62
2021/05/16 07:01:25;;;;;;;1.23;1.10;;;;;;;11.68;90.91;95361.03;5074899;28;20401;-63
2021/05/16 07:03:50;;;;;;;2.97;1.23;;;;;;;11.69;90.24;95372.34;5074951;28;20553;-62
2021/05/16 07:06:16;;;;;;;2.13;1.00;;;;;;;11.50;90.64;95379.88;5074929;28;20506;-62
2021/05/16 07:08:41;;;;;;;1.20;0.70;;;;;;;11.45;89.96;95379.81;5074263;28;20643;-61
2021/05/16 07:11:07;;;;;;;2.27;0.70;;;;;;;11.53;90.44;95368.03;5072269;28;20174;-63
2021/05/16 07:13:32;;;;;;;1.87;0.83;;;;;;;11.88;89.94;95363.75;5073901;28;20181;-65
2021/05/16 07:15:57;;;;;;;1.03;0.70;;;;;;;12.25;88.51;95372.28;5074470;28;20199;-66
2021/05/16 07:18:23;;;;;;;4.43;0.80;;;;;;;12.29;88.22;95368.09;5074464;28;20175;-65
2021/05/16 07:20:50;;;;;;;2.30;0.70;;;;;;;12.09;86.53;95364.59;5074506;28;20277;-61
2021/05/16 07:23:16;;;;;;;1.50;0.60;;;;;;;12.35;86.32;95356.50;5072665;28;21007;-66
2021/05/16 07:25:41;;;;;;;2.70;1.30;;;;;;;12.41;87.48;95358.09;5074541;28;20500;-62
2021/05/16 07:28:06;;;;;;;1.27;0.90;;;;;;;12.49;86.69;95355.97;5073264;28;20185;-66
2021/05/16 07:30:32;;;;;;;4.37;0.90;;;;;;;12.50;85.96;95360.22;5074349;28;20187;-61
2021/05/16 07:32:57;;;;;;;1.70;0.80;;;;;;;12.54;85.69;95363.91;5074534;28;20208;-66
2021/05/16 07:35:23;;;;;;;2.60;0.90;;;;;;;12.36;84.24;95363.34;5074502;28;20177;-61
2021/05/16 07:37:49;;;;;;;2.37;0.83;;;;;;;12.11;85.12;95362.50;5072112;28;20202;-61
2021/05/16 07:40:15;;;;;;;2.60;1.00;;;;;;;12.27;84.51;95361.47;5072544;28;20445;-65
2021/05/16 07:42:56;;;;;;;1.23;0.70;;;;;;;12.20;84.57;95366.22;5071165;28;20171;-65
2021/05/16 07:45:23;;;;;;;1.23;0.80;;;;;;;12.26;86.07;95362.53;5066385;28;20413;-60
2021/05/16 07:47:48;;;;;;;2.83;0.90;;;;;;;12.43;85.67;95361.25;5073640;28;20409;-61
2021/05/16 07:50:14;;;;;;;1.93;1.10;;;;;;;12.39;84.10;95362.03;5053624;28;20964;-61
2021/05/16 07:52:40;;;;;;;2.63;1.00;;;;;;;12.67;83.92;95355.47;5054146;28;20175;-65
2021/05/16 07:55:07;;;;;;;2.30;0.83;;;;;;;12.52;83.28;95366.00;5053907;28;20225;-65
2021/05/16 07:57:33;;;;;;;2.43;0.90;;;;;;;12.36;83.15;95365.97;5053180;28;20476;-60
2021/05/16 07:59:59;;;;;;;2.63;0.87;;;;;;;12.31;84.52;95373.09;5053818;28;20789;-65
2021/05/16 08:02:24;;;;;;;2.70;1.10;;;;;;;12.69;84.59;95372.59;5054772;28;20638;-60
2021/05/16 08:04:49;;;;;;;2.47;1.20;;;;;;;12.40;87.70;95377.59;5069398;28;20183;-65
2021/05/16 08:07:15;;;;;;;3.43;1.17;;;;;;;12.28;90.80;95382.28;5070382;28;20171;-61
2021/05/16 08:09:40;;;;;;;2.63;1.20;;;;;;;11.93;91.52;95368.22;5053597;28;20203;-66
2021/05/16 08:12:06;;;;;;;1.53;1.20;;;;;;;11.46;96.00;95375.34;5052417;28;20179;-61
2021/05/16 08:14:31;;;;;;;1.60;0.90;;;;;;;11.63;95.63;95374.13;5053923;28;20526;-61
2021/05/16 08:16:57;;;;;;;3.63;1.17;;;;;;;11.52;97.08;95371.72;5053387;28;20199;-65
2021/05/16 08:19:23;;;;;;;2.87;1.00;;;;;;;11.45;95.45;95364.03;5052177;28;20195;-65
2021/05/16 08:21:49;;;;;;;2.20;1.20;;;;;;;11.31;96.66;95370.81;5053717;28;20629;-61
2021/05/16 08:24:15;;;;;;;2.40;1.13;;;;;;;11.45;96.12;95369.28;5055072;28;20180;-66
2021/05/16 08:26:41;;;;;;;3.07;1.53;;;;;;;11.78;97.83;95358.44;5053629;28;20449;-61
2021/05/16 08:29:08;;;;;;;3.17;1.30;;;;;;;11.55;98.57;95376.47;5053011;28;20932;-66
2021/05/16 08:31:35;;;;;;;2.00;1.30;;;;;;;11.60;97.98;95363.31;5052232;28;20431;-61
2021/05/16 08:34:05;;;;;;;3.17;1.80;;;;;;;12.19;98.75;95357.50;5053130;28;20896;-64
2021/05/16 08:36:35;;;;;;;4.50;1.40;;;;;;;12.51;95.86;95352.03;5053378;28;20824;-61
2021/05/16 08:39:02;;;;;;;4.27;1.33;;;;;;;12.64;95.11;95353.38;5057750;28;20433;-65
2021/05/16 08:41:28;;;;;;;3.23;1.53;;;;;;;13.03;94.07;95360.50;5072475;28;20435;-65
2021/05/16 08:43:54;;;;;;;3.23;1.23;;;;;;;12.88;91.28;95351.78;5056317;28;20873;-61
2021/05/16 08:46:21;;;;;;;1.13;1.00;;;;;;;12.91;93.09;95356.53;5053734;28;20212;-65
2021/05/16 08:48:46;;;;;;;2.83;1.17;;;;;;;12.87;93.45;95345.72;5071876;28;20428;-61
2021/05/16 08:51:15;;;;;;;4.10;1.17;;;;;;;12.90;94.03;95350.47;5073091;28;20421;-65
2021/05/16 08:53:40;;;;;;;4.23;1.13;;;;;;;13.00;91.24;95345.19;5063899;28;20175;-64
2021/05/16 08:56:06;;;;;;;5.33;1.40;;;;;;;13.15;89.72;95352.31;5060636;28;20529;-67
2021/05/16 08:58:32;;;;;;;1.83;1.10;;;;;;;12.99;85.99;95342.81;5073454;28;20579;-68
2021/05/16 09:00:59;;;;;;;1.67;1.57;;;;;;;12.62;89.25;95348.38;5073770;28;20505;-62
2021/05/16 09:03:24;;;;;;;4.93;1.30;;;;;;;12.75;88.02;95342.56;5073703;28;20404;-62
2021/05/16 09:05:52;;;;;;;14.73;2.00;;;;;;;12.84;89.18;95354.19;5071790;28;20950;-67
2021/05/16 09:08:22;;;;;;;4.73;1.33;;;;;;;13.28;85.02;95335.94;5057643;28;20236;-67
2021/05/16 09:10:59;;;;;;;3.23;1.00;;;;;;;13.30;83.54;95334.63;5053660;28;20449;-62
2021/05/16 09:13:31;;;;;;;1.67;1.50;;;;;;;13.31;83.71;95341.47;5053727;28;20454;-67
2021/05/16 09:16:01;;;;;;;3.30;1.80;;;;;;;13.27;78.96;95347.56;5053404;28;20532;-65
2021/05/16 09:18:59;;;;;;;3.10;1.43;;;;;;;13.39;78.39;95340.91;5054454;28;20479;-65
2021/05/16 09:21:29;;;;;;;2.17;1.30;;;;;;;13.64;75.42;95326.88;5058214;28;20449;-64
2021/05/16 09:24:00;;;;;;;3.40;1.50;;;;;;;14.02;76.69;95328.78;5056967;28;20772;-64
2021/05/16 09:26:35;;;;;;;3.50;1.40;;;;;;;14.46;73.04;95336.75;5056798;28;20453;-62
2021/05/16 09:29:30;;;;;;;3.60;1.30;;;;;;;14.22;72.61;95322.63;5056221;28;20433;-61
2021/05/16 09:32:00;;;;;;;3.63;1.37;;;;;;;13.89;72.05;95325.97;5056855;28;20413;-61
2021/05/16 09:34:26;;;;;;;2.70;1.00;;;;;;;14.09;72.43;95331.16;5056618;28;20414;-61
2021/05/16 09:36:53;;;;;;;4.43;1.23;;;;;;;14.16;68.93;95331.63;5074580;28;20459;-63
2021/05/16 09:39:27;;;;;;;3.60;1.53;;;;;;;14.20;69.39;95322.88;5074920;28;20479;-65
2021/05/16 09:41:58;;;;;;;2.70;1.27;;;;;;;14.18;68.47;95319.75;5062782;28;20741;-63
2021/05/16 09:44:38;;;;;;;3.10;1.23;;;;;;;14.40;68.82;95312.19;5059855;28;20495;-62
2021/05/16 09:47:11;;;;;;;2.60;1.17;;;;;;;14.76;67.36;95325.16;5058343;28;20414;-65
2021/05/16 09:49:37;;;;;;;4.00;1.30;;;;;;;14.80;66.46;95323.56;5057301;28;20481;-65
2021/05/16 09:52:14;;;;;;;3.53;1.50;;;;;;;14.80;66.29;95326.19;5071183;28;20474;-64
2021/05/16 09:54:57;;;;;;;2.83;1.23;;;;;;;14.56;64.99;95320.84;5056467;28;20178;-64
2021/05/16 09:57:27;;;;;;;3.00;1.30;;;;;;;14.44;64.56;95315.09;5055821;28;20453;-63
2021/05/16 09:59:54;;;;;;;9.03;1.33;;;;;;;14.53;65.23;95308.16;5058260;28;20414;-63
2021/05/16 10:02:24;;;;;;;2.77;1.10;;;;;;;14.45;63.10;95319.31;5074059;28;20417;-64
2021/05/16 10:04:51;;;;;;;4.43;1.30;;;;;;;14.84;62.63;95311.38;5073561;28;20421;-64
2021/05/16 10:07:17;;;;;;;3.30;1.20;;;;;;;15.23;65.01;95294.31;5072882;28;20899;-63
2021/05/16 10:09:43;;;;;;;4.90;1.10;;;;;;;15.50;61.07;95298.28;5072343;28;20429;-63
2021/05/16 10:12:09;;;;;;;1.70;0.83;;;;;;;15.20;57.02;95294.09;5068099;28;20750;-64
2021/05/16 10:14:41;;;;;;;3.53;0.90;;;;;;;15.38;55.82;95291.47;5069708;28;20248;-63
2021/05/16 10:17:08;;;;;;;2.37;1.27;;;;;;;15.36;56.55;95287.56;5068211;28;20472;-63
2021/05/16 10:19:40;;;;;;;1.30;1.07;;;;;;;15.52;57.72;95277.59;5071626;28;20467;-63
2021/05/16 10:22:14;;;;;;;3.90;1.20;;;;;;;15.89;57.86;95285.63;5058356;28;20444;-62
2021/05/16 10:24:41;;;;;;;3.60;0.90;;;;;;;16.10;56.26;95273.66;5066878;28;20426;-60
2021/05/16 10:27:43;;;;;;;4.37;1.00;;;;;;;16.03;55.51;95275.91;5056009;28;20441;-59
2021/05/16 10:30:12;;;;;;;3.03;1.03;;;;;;;15.92;57.02;95264.66;5064788;28;20445;-59
2021/05/16 10:32:47;;;;;;;1.47;0.90;;;;;;;15.62;55.96;95280.16;5057594;28;22226;-59
2021/05/16 10:35:14;;;;;;;2.90;1.13;;;;;;;15.77;54.38;95264.03;5057478;28;20425;-61
2021/05/16 10:37:42;;;;;;;4.70;1.27;;;;;;;15.31;56.20;95269.06;5055046;28;20530;-62
2021/05/16 10:40:20;;;;;;;3.20;1.23;;;;;;;15.34;57.49;95279.88;5061334;28;20814;-62
2021/05/16 10:42:45;;;;;;;2.20;1.20;;;;;;;15.04;57.71;95282.84;5075400;28;20415;-62
2021/05/16 10:45:12;;;;;;;2.77;1.30;;;;;;;14.99;58.47;95282.09;5075250;28;20495;-62
2021/05/16 10:47:44;;;;;;;2.77;1.10;;;;;;;14.82;58.88;95277.22;5071696;28;20642;-63
2021/05/16 10:50:31;;;;;;;3.23;1.00;;;;;;;15.19;57.17;95268.69;5055125;28;20445;-59
2021/05/16 10:53:04;;;;;;;6.43;1.40;;;;;;;15.32;56.95;95266.16;5054945;28;20425;-60
2021/05/16 10:55:51;;;;;;;2.37;1.00;;;;;;;15.13;56.45;95262.66;5055139;28;20434;-59
2021/05/16 10:58:32;;;;;;;2.90;1.40;;;;;;;15.42;57.24;95246.72;5056760;28;20437;-60
2021/05/16 11:01:06;;;;;;;3.70;1.57;;;;;;;15.80;55.40;95237.00;5073665;28;20413;-64
2021/05/16 11:03:48;;;;;;;3.00;1.20;;;;;;;16.54;54.44;95228.22;5062237;28;20938;-60
2021/05/16 11:06:19;;;;;;;2.40;1.20;;;;;;;16.85;51.89;95229.28;5054636;28;20981;-63
2021/05/16 11:08:48;;;;;;;2.53;1.23;;;;;;;17.05;51.26;95224.38;5059764;28;20917;-63
2021/05/16 11:11:32;;;;;;;1.90;1.00;;;;;;;16.82;49.44;95208.63;5054743;28;20410;-63
2021/05/16 11:13:58;;;;;;;2.10;0.97;;;;;;;16.91;51.46;95201.56;5054310;28;20434;-63
2021/05/16 11:16:24;;;;;;;1.70;1.20;;;;;;;16.60;51.00;95208.47;5059981;28;20456;-63
2021/05/16 11:18:49;;;;;;;3.20;1.13;;;;;;;15.97;50.98;95216.09;5073970;28;20432;-64
2021/05/16 11:21:16;;;;;;;3.13;1.10;;;;;;;16.25;52.47;95193.94;5074872;28;20183;-65
2021/05/16 11:23:44;;;;;;;2.10;0.93;;;;;;;16.05;52.10;95199.56;5074629;28;20201;-66
2021/05/16 11:26:14;;;;;;;1.20;0.73;;;;;;;16.04;49.64;95193.44;5055706;28;20432;-66
2021/05/16 11:28:49;;;;;;;2.10;1.17;;;;;;;16.65;50.19;95176.59;5052691;28;20429;-64
2021/05/16 11:31:19;;;;;;;1.20;0.77;;;;;;;16.79;48.39;95188.78;5054176;28;20553;-63
2021/05/16 11:33:47;;;;;;;3.70;1.00;;;;;;;16.93;47.63;95183.47;5054460;28;20390;-66
2021/05/16 11:36:15;;;;;;;1.43;0.60;;;;;;;16.87;48.84;95179.34;5067840;28;20564;-67